Time;durP1;ratioP1;P1;durP2;ratioP2;P2;SDS_P1;SDS_P2;PMS_P1;PMS_P2;Temp;Humidity;BMP_temperature;BMP_pressure;BME280_temperature;BME280_humidity;BME280_pressure;Samples;Min_cycle;Max_cycle;Signal;HPM_P1;HPM_P2
2022/07/26 00:01:50;;;;;;;6.20;1.67;;;;;;;;;;4946981;28;20032;-86
2022/07/26 00:04:15;;;;;;;4.95;1.55;;;;;;;;;;4947475;28;20023;-85
2022/07/26 00:06:41;;;;;;;11.20;1.85;;;;;;;;;;4948956;28;20047;-86
2022/07/26 00:09:06;;;;;;;4.15;1.30;;;;;;;;;;4947235;28;20577;-85
2022/07/26 00:11:32;;;;;;;5.95;1.60;;;;;;;;;;4946273;28;20036;-86
2022/07/26 00:14:00;;;;;;;8.68;1.70;;;;;;;;;;4946686;28;20167;-87
2022/07/26 00:16:26;;;;;;;5.97;1.25;;;;;;;;;;4946352;28;20019;-85
2022/07/26 00:18:51;;;;;;;8.68;2.13;;;;;;;;;;4944979;28;20043;-85
2022/07/26 00:21:17;;;;;;;5.57;1.58;;;;;;;;;;4933092;29;20047;-85
2022/07/26 00:23:42;;;;;;;8.45;1.63;;;;;;;;;;4946465;28;20044;-86
2022/07/26 00:26:07;;;;;;;6.65;1.52;;;;;;;;;;4941726;28;20043;-85
2022/07/26 00:28:33;;;;;;;10.38;1.67;;;;;;;;;;4946587;28;20034;-85
2022/07/26 00:30:58;;;;;;;5.20;1.40;;;;;;;;;;4947150;28;20615;-85
2022/07/26 00:33:23;;;;;;;7.95;1.80;;;;;;;;;;4950431;28;20039;-85
2022/07/26 00:35:49;;;;;;;7.68;1.42;;;;;;;;;;4950407;28;20062;-85
2022/07/26 00:38:14;;;;;;;7.95;1.90;;;;;;;;;;4949121;28;20522;-86
2022/07/26 00:40:40;;;;;;;7.10;2.10;;;;;;;;;;4949135;28;20046;-85
2022/07/26 00:43:05;;;;;;;6.50;2.08;;;;;;;;;;4943640;28;20075;-85
2022/07/26 00:45:31;;;;;;;7.38;2.08;;;;;;;;;;4949902;28;20040;-85
2022/07/26 00:47:56;;;;;;;6.13;1.83;;;;;;;;;;4949556;28;20051;-85
2022/07/26 00:50:21;;;;;;;6.15;1.80;;;;;;;;;;4950126;28;20125;-86
2022/07/26 00:52:48;;;;;;;6.35;2.13;;;;;;;;;;4952421;28;20042;-85
2022/07/26 00:55:15;;;;;;;9.15;2.35;;;;;;;;;;4957102;28;20108;-86
2022/07/26 00:57:42;;;;;;;9.00;1.73;;;;;;;;;;4974241;28;20190;-86
2022/07/26 01:00:11;;;;;;;8.82;2.08;;;;;;;;;;4968541;28;20051;-85
2022/07/26 01:02:37;;;;;;;5.05;1.80;;;;;;;;;;4968576;28;20042;-86
2022/07/26 01:05:03;;;;;;;10.45;2.20;;;;;;;;;;4952855;28;20027;-85
2022/07/26 01:07:28;;;;;;;8.90;1.80;;;;;;;;;;4952638;28;20479;-86
2022/07/26 01:09:54;;;;;;;5.82;1.75;;;;;;;;;;4951495;28;20122;-86
2022/07/26 01:12:20;;;;;;;6.95;1.73;;;;;;;;;;4948623;28;20039;-86
2022/07/26 01:14:45;;;;;;;7.05;1.80;;;;;;;;;;4946282;28;20047;-86
2022/07/26 01:17:12;;;;;;;12.85;1.83;;;;;;;;;;4949785;28;20039;-86
2022/07/26 01:19:38;;;;;;;7.85;2.10;;;;;;;;;;4947251;28;20063;-85
2022/07/26 01:22:03;;;;;;;9.65;2.55;;;;;;;;;;4950866;28;20541;-85
2022/07/26 01:24:29;;;;;;;6.75;2.13;;;;;;;;;;4949392;28;20463;-85
2022/07/26 01:26:55;;;;;;;4.38;1.58;;;;;;;;;;4956056;28;20122;-86
2022/07/26 01:29:21;;;;;;;6.75;1.63;;;;;;;;;;4962185;28;20041;-86
2022/07/26 01:31:47;;;;;;;6.45;1.98;;;;;;;;;;4948561;28;20070;-85
2022/07/26 01:34:13;;;;;;;9.73;2.10;;;;;;;;;;4964139;28;20019;-84
2022/07/26 01:36:38;;;;;;;6.43;1.85;;;;;;;;;;4947363;28;20051;-85
2022/07/26 01:39:03;;;;;;;5.50;1.88;;;;;;;;;;4948734;28;20612;-86
2022/07/26 01:41:29;;;;;;;4.43;1.75;;;;;;;;;;4950928;28;20055;-85
2022/07/26 01:43:54;;;;;;;8.60;1.80;;;;;;;;;;4944691;28;20127;-84
2022/07/26 01:46:20;;;;;;;6.00;1.70;;;;;;;;;;4946984;29;20023;-85
2022/07/26 01:48:45;;;;;;;8.00;2.08;;;;;;;;;;4945457;28;20051;-86
2022/07/26 01:51:11;;;;;;;9.70;2.00;;;;;;;;;;4949667;28;20784;-86
2022/07/26 01:53:36;;;;;;;5.85;1.60;;;;;;;;;;4948328;28;20080;-85
2022/07/26 01:56:01;;;;;;;6.15;1.83;;;;;;;;;;4949876;28;20602;-85
2022/07/26 01:58:27;;;;;;;8.63;1.67;;;;;;;;;;4948175;29;20397;-85
2022/07/26 02:00:52;;;;;;;4.88;1.80;;;;;;;;;;4948477;28;20043;-85
2022/07/26 02:03:17;;;;;;;6.20;1.80;;;;;;;;;;4949753;28;20097;-84
2022/07/26 02:05:43;;;;;;;7.07;1.70;;;;;;;;;;4947341;28;20134;-85
2022/07/26 02:08:09;;;;;;;7.78;1.88;;;;;;;;;;4949531;28;20067;-86
2022/07/26 02:13:19;;;;;;;5.95;2.50;;;;;;;;;;4949125;28;20050;-85
2022/07/26 02:15:44;;;;;;;6.38;2.05;;;;;;;;;;4946364;29;20047;-85
2022/07/26 02:18:09;;;;;;;6.68;2.00;;;;;;;;;;4948478;28;20134;-85
2022/07/26 02:20:35;;;;;;;6.70;2.05;;;;;;;;;;4946907;28;20042;-85
2022/07/26 02:23:02;;;;;;;10.70;2.00;;;;;;;;;;4943168;28;20038;-85
2022/07/26 02:25:27;;;;;;;9.68;2.47;;;;;;;;;;4961434;28;20046;-85
2022/07/26 02:27:53;;;;;;;6.53;2.42;;;;;;;;;;4948944;28;20039;-86
2022/07/26 02:30:18;;;;;;;5.47;1.88;;;;;;;;;;4947708;28;20043;-85
2022/07/26 02:32:44;;;;;;;5.80;1.90;;;;;;;;;;4946845;28;20035;-85
2022/07/26 02:35:09;;;;;;;9.15;2.55;;;;;;;;;;4963207;28;20043;-85
2022/07/26 02:37:35;;;;;;;7.57;2.08;;;;;;;;;;4947441;28;20033;-85
2022/07/26 02:40:03;;;;;;;13.63;2.47;;;;;;;;;;4946082;28;20447;-85
2022/07/26 02:42:28;;;;;;;11.23;2.20;;;;;;;;;;4946776;28;20051;-86
2022/07/26 02:44:54;;;;;;;12.93;2.58;;;;;;;;;;4947114;28;20078;-85
2022/07/26 02:47:19;;;;;;;7.95;1.90;;;;;;;;;;4947569;28;20121;-85
2022/07/26 02:49:44;;;;;;;13.27;2.20;;;;;;;;;;4948074;28;20106;-84
2022/07/26 02:52:10;;;;;;;8.82;2.40;;;;;;;;;;4948645;28;20031;-85
2022/07/26 02:54:35;;;;;;;6.38;1.50;;;;;;;;;;4962594;28;20032;-85
2022/07/26 02:57:01;;;;;;;5.40;1.98;;;;;;;;;;4945764;28;20047;-85
2022/07/26 02:59:26;;;;;;;8.77;2.20;;;;;;;;;;4964142;28;20237;-85
2022/07/26 03:01:51;;;;;;;5.30;2.03;;;;;;;;;;4947638;28;20023;-85
2022/07/26 03:04:17;;;;;;;6.75;2.10;;;;;;;;;;4949881;28;20475;-85
2022/07/26 03:06:42;;;;;;;5.55;2.00;;;;;;;;;;4949081;28;20126;-84
2022/07/26 03:09:08;;;;;;;11.27;2.30;;;;;;;;;;4946462;28;20120;-85
2022/07/26 03:11:33;;;;;;;5.22;2.17;;;;;;;;;;4951780;28;20137;-86
2022/07/26 03:13:58;;;;;;;5.65;2.10;;;;;;;;;;4948009;28;20029;-86
2022/07/26 03:16:24;;;;;;;5.32;1.98;;;;;;;;;;4949239;29;20553;-87
2022/07/26 03:18:49;;;;;;;11.65;2.80;;;;;;;;;;4948435;28;20102;-86
2022/07/26 03:21:14;;;;;;;7.15;2.47;;;;;;;;;;4947183;28;20094;-84
2022/07/26 03:23:40;;;;;;;9.73;2.30;;;;;;;;;;4947947;28;20520;-83
2022/07/26 03:26:05;;;;;;;11.05;3.10;;;;;;;;;;4946799;28;20043;-83
2022/07/26 03:28:32;;;;;;;5.85;1.90;;;;;;;;;;4945561;28;20041;-83
2022/07/26 03:30:58;;;;;;;7.60;2.20;;;;;;;;;;4944420;28;20522;-83
2022/07/26 03:33:24;;;;;;;10.40;2.50;;;;;;;;;;4961800;28;20086;-84
2022/07/26 03:35:49;;;;;;;8.63;2.45;;;;;;;;;;4943234;28;20043;-83
2022/07/26 03:38:15;;;;;;;11.15;2.35;;;;;;;;;;4948829;28;20071;-84
2022/07/26 03:40:40;;;;;;;8.57;2.13;;;;;;;;;;4950268;28;20051;-84
2022/07/26 03:43:05;;;;;;;7.38;2.00;;;;;;;;;;4948742;28;20121;-83
2022/07/26 03:45:31;;;;;;;5.90;1.67;;;;;;;;;;4943060;28;20120;-84
2022/07/26 03:47:56;;;;;;;3.70;1.73;;;;;;;;;;4948813;28;20036;-84
2022/07/26 03:50:22;;;;;;;8.50;2.10;;;;;;;;;;4963244;28;20046;-84
2022/07/26 03:52:47;;;;;;;10.60;2.25;;;;;;;;;;4947617;28;20134;-84
2022/07/26 03:57:57;;;;;;;7.97;2.25;;;;;;;;;;4948864;28;20046;-84
2022/07/26 04:00:22;;;;;;;4.30;1.70;;;;;;;;;;4946362;28;20035;-84
2022/07/26 04:02:47;;;;;;;8.00;2.45;;;;;;;;;;4946805;29;20570;-84
2022/07/26 04:05:13;;;;;;;5.40;1.90;;;;;;;;;;4964512;28;20062;-85
2022/07/26 04:07:43;;;;;;;6.18;2.25;;;;;;;;;;4951759;29;20118;-85
2022/07/26 04:10:09;;;;;;;4.90;1.92;;;;;;;;;;4950326;28;20526;-84
2022/07/26 04:12:34;;;;;;;7.20;2.25;;;;;;;;;;4948855;28;20035;-84
2022/07/26 04:14:59;;;;;;;6.38;1.90;;;;;;;;;;4945234;28;20090;-84
2022/07/26 04:17:25;;;;;;;6.53;2.00;;;;;;;;;;4966217;28;20027;-85
2022/07/26 04:19:50;;;;;;;6.25;1.70;;;;;;;;;;4949239;28;20023;-84
2022/07/26 04:22:16;;;;;;;8.38;2.15;;;;;;;;;;4943723;29;20028;-85
2022/07/26 04:24:41;;;;;;;6.63;2.15;;;;;;;;;;4966056;28;20134;-85
2022/07/26 04:27:06;;;;;;;5.57;1.98;;;;;;;;;;4950584;28;20047;-85
2022/07/26 04:29:32;;;;;;;3.30;2.03;;;;;;;;;;4951706;28;20623;-84
2022/07/26 04:31:57;;;;;;;9.10;2.25;;;;;;;;;;4950530;28;20039;-84
2022/07/26 04:34:22;;;;;;;13.65;2.47;;;;;;;;;;4963336;28;20026;-84
2022/07/26 04:36:48;;;;;;;8.02;2.40;;;;;;;;;;4947861;28;20055;-85
2022/07/26 04:39:13;;;;;;;7.57;2.40;;;;;;;;;;4952316;28;20031;-84
2022/07/26 04:41:38;;;;;;;5.38;2.53;;;;;;;;;;4962116;28;20043;-84
2022/07/26 04:44:04;;;;;;;4.15;2.10;;;;;;;;;;4951003;28;20174;-84
2022/07/26 04:46:29;;;;;;;6.70;2.40;;;;;;;;;;4965818;28;20147;-85
2022/07/26 04:48:55;;;;;;;7.53;2.55;;;;;;;;;;4951116;28;20388;-84
2022/07/26 04:51:20;;;;;;;9.02;2.50;;;;;;;;;;4948693;28;20522;-85
2022/07/26 04:53:45;;;;;;;9.43;2.92;;;;;;;;;;4950668;28;20035;-84
2022/07/26 04:56:11;;;;;;;5.35;2.25;;;;;;;;;;4954315;28;20038;-85
2022/07/26 04:58:36;;;;;;;13.15;2.83;;;;;;;;;;4965298;28;20031;-85
2022/07/26 05:01:01;;;;;;;9.10;2.15;;;;;;;;;;4957303;28;20094;-85
2022/07/26 05:03:27;;;;;;;7.75;2.28;;;;;;;;;;4952192;28;20103;-85
2022/07/26 05:05:52;;;;;;;7.43;2.42;;;;;;;;;;4950855;28;20043;-85
2022/07/26 05:08:18;;;;;;;10.05;2.70;;;;;;;;;;4954502;28;20118;-85
2022/07/26 05:10:43;;;;;;;7.80;2.50;;;;;;;;;;4953139;29;20114;-85
2022/07/26 05:13:08;;;;;;;6.65;2.05;;;;;;;;;;4958563;28;20095;-86
2022/07/26 05:15:35;;;;;;;10.85;2.38;;;;;;;;;;4973928;28;20086;-86
2022/07/26 05:18:05;;;;;;;11.50;3.35;;;;;;;;;;4969022;28;20087;-86
2022/07/26 05:20:31;;;;;;;4.65;2.63;;;;;;;;;;4951206;28;20579;-86
2022/07/26 05:22:57;;;;;;;10.98;2.80;;;;;;;;;;4953319;28;20039;-86
2022/07/26 05:25:22;;;;;;;11.05;2.53;;;;;;;;;;4952763;28;20069;-86
2022/07/26 05:27:48;;;;;;;6.18;2.78;;;;;;;;;;4947078;28;20035;-86
2022/07/26 05:30:13;;;;;;;14.55;2.97;;;;;;;;;;4951769;28;20069;-86
2022/07/26 05:32:38;;;;;;;5.63;2.88;;;;;;;;;;4947746;28;20063;-85
2022/07/26 05:35:05;;;;;;;8.98;2.65;;;;;;;;;;4949726;28;20047;-85
2022/07/26 05:37:30;;;;;;;6.00;2.88;;;;;;;;;;4948196;28;20078;-86
2022/07/26 05:39:56;;;;;;;6.10;2.88;;;;;;;;;;4950963;28;20046;-86
2022/07/26 05:42:21;;;;;;;6.97;2.63;;;;;;;;;;4953668;28;20051;-86
2022/07/26 05:44:47;;;;;;;8.73;2.92;;;;;;;;;;4960243;28;20046;-85
2022/07/26 05:47:12;;;;;;;9.88;2.58;;;;;;;;;;4949950;29;20035;-87
2022/07/26 05:49:38;;;;;;;9.35;3.10;;;;;;;;;;4950469;28;20038;-86
2022/07/26 05:52:03;;;;;;;6.25;2.80;;;;;;;;;;4964336;28;20035;-86
2022/07/26 05:54:29;;;;;;;7.80;2.83;;;;;;;;;;4950568;29;20039;-86
2022/07/26 05:56:54;;;;;;;11.10;2.97;;;;;;;;;;4949234;29;20070;-86
2022/07/26 05:59:19;;;;;;;8.65;2.80;;;;;;;;;;4950953;28;20077;-85
2022/07/26 06:01:45;;;;;;;11.93;3.17;;;;;;;;;;4949201;28;20038;-86
2022/07/26 06:04:10;;;;;;;5.95;2.25;;;;;;;;;;4951218;29;20494;-87
2022/07/26 06:06:35;;;;;;;8.35;3.00;;;;;;;;;;4950403;28;20404;-85
2022/07/26 06:09:01;;;;;;;6.65;2.47;;;;;;;;;;4937174;28;20043;-85
2022/07/26 06:11:26;;;;;;;9.05;2.83;;;;;;;;;;4958104;28;20039;-85
2022/07/26 06:13:52;;;;;;;7.38;2.22;;;;;;;;;;4950471;28;20023;-85
2022/07/26 06:16:17;;;;;;;7.30;2.88;;;;;;;;;;4950849;28;20510;-85
2022/07/26 06:18:42;;;;;;;9.48;2.95;;;;;;;;;;4949849;28;20541;-85
2022/07/26 06:21:08;;;;;;;8.85;2.75;;;;;;;;;;4963755;28;20038;-86
2022/07/26 06:23:33;;;;;;;13.13;3.28;;;;;;;;;;4947826;28;20062;-85
2022/07/26 06:25:59;;;;;;;10.48;3.35;;;;;;;;;;4949872;28;20675;-85
2022/07/26 06:28:24;;;;;;;15.35;3.90;;;;;;;;;;4950093;28;20617;-86
2022/07/26 06:30:49;;;;;;;9.65;3.15;;;;;;;;;;4945240;28;20039;-87
2022/07/26 06:33:15;;;;;;;7.53;2.78;;;;;;;;;;4946736;28;20042;-86
2022/07/26 06:35:41;;;;;;;8.10;2.88;;;;;;;;;;4950035;28;20043;-86
2022/07/26 06:38:07;;;;;;;8.30;3.28;;;;;;;;;;4949218;28;20043;-86
2022/07/26 06:40:33;;;;;;;6.95;2.90;;;;;;;;;;4958942;28;20027;-86
2022/07/26 06:42:59;;;;;;;12.63;3.03;;;;;;;;;;4956198;28;20783;-86
2022/07/26 06:45:26;;;;;;;11.82;2.97;;;;;;;;;;4952339;28;20051;-87
2022/07/26 06:47:51;;;;;;;5.50;2.67;;;;;;;;;;4946057;29;20066;-84
2022/07/26 06:50:17;;;;;;;10.50;3.15;;;;;;;;;;4942897;28;20077;-86
2022/07/26 06:52:42;;;;;;;16.67;3.65;;;;;;;;;;4952349;28;20026;-88
2022/07/26 06:55:08;;;;;;;8.30;2.88;;;;;;;;;;4950251;28;20042;-88
2022/07/26 06:57:34;;;;;;;11.43;2.83;;;;;;;;;;4949981;28;20043;-87
2022/07/26 07:00:00;;;;;;;5.70;2.58;;;;;;;;;;4951060;28;20731;-88
2022/07/26 07:02:26;;;;;;;11.25;3.08;;;;;;;;;;4952113;28;20063;-89
2022/07/26 07:04:51;;;;;;;6.72;2.72;;;;;;;;;;4949867;28;20110;-88
2022/07/26 07:07:16;;;;;;;11.48;2.80;;;;;;;;;;4951574;28;20062;-88
2022/07/26 07:09:42;;;;;;;5.32;2.45;;;;;;;;;;4952349;28;20845;-88
2022/07/26 07:12:07;;;;;;;6.60;2.63;;;;;;;;;;4950686;28;20039;-87
2022/07/26 07:14:33;;;;;;;8.90;2.70;;;;;;;;;;4946309;28;20463;-88
2022/07/26 07:16:58;;;;;;;4.20;2.40;;;;;;;;;;4960355;28;20034;-89
2022/07/26 07:19:24;;;;;;;10.15;3.10;;;;;;;;;;4942838;28;20031;-88
2022/07/26 07:21:50;;;;;;;8.50;3.08;;;;;;;;;;4946383;28;20035;-88
2022/07/26 07:24:16;;;;;;;7.90;2.22;;;;;;;;;;4950120;28;20071;-87
2022/07/26 07:26:41;;;;;;;6.40;2.50;;;;;;;;;;4951898;28;20046;-90
2022/07/26 07:29:10;;;;;;;4.38;2.50;;;;;;;;;;4944542;28;20039;-89
2022/07/26 07:31:36;;;;;;;5.60;2.90;;;;;;;;;;4963839;28;20031;-89
2022/07/26 07:34:01;;;;;;;9.20;2.75;;;;;;;;;;4945433;28;20035;-86
2022/07/26 07:36:27;;;;;;;4.72;2.20;;;;;;;;;;4950629;28;20114;-90
2022/07/26 07:38:52;;;;;;;9.32;2.60;;;;;;;;;;4948828;28;20053;-89
2022/07/26 07:41:17;;;;;;;5.75;1.85;;;;;;;;;;4965389;28;20046;-90
2022/07/26 07:43:43;;;;;;;5.28;2.38;;;;;;;;;;4949424;29;20419;-88
2022/07/26 07:46:08;;;;;;;6.57;2.03;;;;;;;;;;4966433;28;20526;-90
2022/07/26 07:48:34;;;;;;;11.18;2.38;;;;;;;;;;4951857;28;20082;-89
2022/07/26 07:50:59;;;;;;;7.38;2.50;;;;;;;;;;4961463;28;20043;-91
2022/07/26 07:53:24;;;;;;;8.43;2.30;;;;;;;;;;4948573;28;20039;-90
2022/07/26 07:55:50;;;;;;;8.13;2.65;;;;;;;;;;4948588;28;21340;-90
2022/07/26 07:58:15;;;;;;;7.45;2.47;;;;;;;;;;4948256;29;20023;-90
2022/07/26 08:00:41;;;;;;;6.82;2.50;;;;;;;;;;4950057;28;20055;-90
2022/07/26 08:03:07;;;;;;;7.57;2.45;;;;;;;;;;4950127;28;20703;-90
2022/07/26 08:05:32;;;;;;;6.68;2.47;;;;;;;;;;4947576;28;20047;-88
2022/07/26 08:07:58;;;;;;;5.78;2.40;;;;;;;;;;4964830;28;20035;-90
2022/07/26 08:10:23;;;;;;;5.68;2.38;;;;;;;;;;4950828;28;20029;-91
2022/07/26 08:12:49;;;;;;;7.60;2.30;;;;;;;;;;4949646;28;20047;-88
2022/07/26 08:15:14;;;;;;;4.03;2.35;;;;;;;;;;4948898;28;20098;-89
2022/07/26 08:17:39;;;;;;;7.05;2.33;;;;;;;;;;4950646;28;20043;-90
2022/07/26 08:20:05;;;;;;;5.28;2.17;;;;;;;;;;4942905;28;20094;-90
2022/07/26 08:22:31;;;;;;;4.38;2.17;;;;;;;;;;4952561;28;20023;-87
2022/07/26 08:24:56;;;;;;;9.05;2.30;;;;;;;;;;4970604;28;20054;-87
2022/07/26 08:27:22;;;;;;;3.92;2.15;;;;;;;;;;4961251;28;20051;-91
2022/07/26 08:29:47;;;;;;;7.55;2.42;;;;;;;;;;4950620;28;20046;-90
2022/07/26 08:32:13;;;;;;;5.78;2.88;;;;;;;;;;4948634;28;20093;-88
2022/07/26 08:34:38;;;;;;;5.80;2.53;;;;;;;;;;4951944;29;20458;-89
2022/07/26 08:37:03;;;;;;;8.52;2.67;;;;;;;;;;4944031;28;20050;-89
2022/07/26 08:39:29;;;;;;;6.57;2.30;;;;;;;;;;4949430;28;20514;-90
2022/07/26 08:41:54;;;;;;;3.75;2.40;;;;;;;;;;4946924;28;20122;-90
2022/07/26 08:44:19;;;;;;;6.90;2.28;;;;;;;;;;4943351;28;20058;-91
2022/07/26 08:46:45;;;;;;;8.77;2.50;;;;;;;;;;4948864;28;20039;-88
2022/07/26 08:49:11;;;;;;;5.95;2.65;;;;;;;;;;4947989;28;20086;-89
2022/07/26 08:51:39;;;;;;;5.70;2.55;;;;;;;;;;4948628;28;20427;-90
2022/07/26 08:54:04;;;;;;;4.82;2.42;;;;;;;;;;4949650;28;20047;-91
2022/07/26 08:56:30;;;;;;;4.95;2.45;;;;;;;;;;4953460;28;20089;-88
2022/07/26 08:58:56;;;;;;;7.68;2.58;;;;;;;;;;4949260;28;20153;-90
2022/07/26 09:01:21;;;;;;;7.05;2.03;;;;;;;;;;4951537;28;20042;-88
2022/07/26 09:03:46;;;;;;;7.80;3.67;;;;;;;;;;4947778;28;20047;-88
2022/07/26 09:06:13;;;;;;;10.52;2.25;;;;;;;;;;4960104;28;20433;-86
2022/07/26 09:08:38;;;;;;;8.02;2.47;;;;;;;;;;4951249;28;20114;-89
2022/07/26 09:11:22;;;;;;;3.33;1.83;;;;;;;;;;4948051;28;20035;-88
2022/07/26 09:13:56;;;;;;;3.50;1.65;;;;;;;;;;4951245;28;20027;-87
2022/07/26 09:16:21;;;;;;;3.63;1.73;;;;;;;;;;4965859;28;20458;-87
2022/07/26 09:18:47;;;;;;;5.80;2.10;;;;;;;;;;4951652;28;20530;-87
2022/07/26 09:21:32;;;;;;;9.27;2.08;;;;;;;;;;4949688;28;20534;-89
2022/07/26 09:23:59;;;;;;;6.53;1.98;;;;;;;;;;4950192;28;20111;-87
2022/07/26 09:26:25;;;;;;;6.97;2.20;;;;;;;;;;4951565;28;20059;-86
2022/07/26 09:29:10;;;;;;;8.65;2.20;;;;;;;;;;4951164;28;20449;-87
2022/07/26 09:31:37;;;;;;;4.53;1.95;;;;;;;;;;4963166;28;20035;-86
2022/07/26 09:34:05;;;;;;;7.55;1.98;;;;;;;;;;4989802;28;20119;-87
2022/07/26 09:36:31;;;;;;;5.05;2.03;;;;;;;;;;4973139;28;20285;-86
2022/07/26 09:39:02;;;;;;;2.95;2.00;;;;;;;;;;4964776;28;20122;-87
2022/07/26 09:41:35;;;;;;;5.85;2.35;;;;;;;;;;4978740;28;20070;-87
2022/07/26 09:44:03;;;;;;;2.55;2.13;;;;;;;;;;4960852;28;20046;-87
2022/07/26 09:46:33;;;;;;;3.67;1.98;;;;;;;;;;4951967;28;20047;-86
2022/07/26 09:49:18;;;;;;;6.95;2.30;;;;;;;;;;4950286;28;20105;-87
2022/07/26 09:51:45;;;;;;;4.03;2.00;;;;;;;;;;4945427;28;20129;-87
2022/07/26 09:54:17;;;;;;;3.67;2.10;;;;;;;;;;4948282;28;20179;-87
2022/07/26 09:56:49;;;;;;;5.13;2.90;;;;;;;;;;4949759;28;20043;-87
2022/07/26 09:59:18;;;;;;;3.05;2.20;;;;;;;;;;4940659;28;20040;-87
2022/07/26 10:01:44;;;;;;;5.05;2.55;;;;;;;;;;4962337;28;20142;-85
2022/07/26 10:04:10;;;;;;;7.38;3.10;;;;;;;;;;4950592;28;20358;-87
2022/07/26 10:06:35;;;;;;;7.65;3.33;;;;;;;;;;4949357;28;20075;-87
2022/07/26 10:09:02;;;;;;;7.03;3.80;;;;;;;;;;4947265;28;20117;-87
2022/07/26 10:11:39;;;;;;;6.15;3.40;;;;;;;;;;4962355;28;20090;-86
2022/07/26 10:14:40;;;;;;;9.48;3.40;;;;;;;;;;4970807;28;20059;-86
2022/07/26 10:17:27;;;;;;;11.13;3.25;;;;;;;;;;4946081;28;20102;-87
2022/07/26 10:19:56;;;;;;;7.13;3.17;;;;;;;;;;4964324;28;20123;-87
2022/07/26 10:22:25;;;;;;;5.47;3.42;;;;;;;;;;4962002;28;20402;-85
2022/07/26 10:24:54;;;;;;;7.38;3.00;;;;;;;;;;4944915;28;20046;-86
2022/07/26 10:27:58;;;;;;;6.47;2.78;;;;;;;;;;4956769;28;20051;-86
2022/07/26 10:30:26;;;;;;;5.10;2.30;;;;;;;;;;4921399;29;20095;-86
2022/07/26 10:33:00;;;;;;;5.63;2.53;;;;;;;;;;4938309;28;20058;-87
2022/07/26 10:35:43;;;;;;;4.78;2.30;;;;;;;;;;4959873;28;20101;-87
2022/07/26 10:38:13;;;;;;;4.22;2.40;;;;;;;;;;4949708;28;20126;-84
2022/07/26 10:40:55;;;;;;;5.68;2.17;;;;;;;;;;4942689;28;20063;-85
2022/07/26 10:43:21;;;;;;;3.47;1.83;;;;;;;;;;4945054;28;20094;-89
2022/07/26 10:45:46;;;;;;;2.50;1.63;;;;;;;;;;4953040;28;20075;-87
2022/07/26 10:48:17;;;;;;;3.13;1.90;;;;;;;;;;4948057;28;20031;-89
2022/07/26 10:50:45;;;;;;;6.95;2.08;;;;;;;;;;4932748;28;20777;-87
2022/07/26 10:53:17;;;;;;;3.63;1.90;;;;;;;;;;4948447;28;20090;-87
2022/07/26 10:55:48;;;;;;;4.00;1.70;;;;;;;;;;4953468;28;20055;-87
2022/07/26 10:58:13;;;;;;;1.75;1.40;;;;;;;;;;4943633;28;20031;-87
2022/07/26 11:00:39;;;;;;;2.75;1.50;;;;;;;;;;4948355;28;20035;-85
2022/07/26 11:03:04;;;;;;;4.93;1.80;;;;;;;;;;4968086;28;20042;-86
2022/07/26 11:05:33;;;;;;;3.38;1.92;;;;;;;;;;4949292;28;20043;-87
2022/07/26 11:08:03;;;;;;;3.08;1.65;;;;;;;;;;4949677;28;20038;-86
2022/07/26 11:10:40;;;;;;;3.10;1.48;;;;;;;;;;4951111;28;20027;-87
2022/07/26 11:13:25;;;;;;;4.97;1.98;;;;;;;;;;4946396;28;20661;-84
2022/07/26 11:15:58;;;;;;;3.10;1.50;;;;;;;;;;4944214;28;20043;-86
2022/07/26 11:18:31;;;;;;;2.17;1.73;;;;;;;;;;4949681;28;20050;-86
2022/07/26 11:21:07;;;;;;;2.78;1.83;;;;;;;;;;4960271;28;20099;-85
2022/07/26 11:23:37;;;;;;;3.65;2.30;;;;;;;;;;4948985;28;20039;-87
2022/07/26 11:26:07;;;;;;;3.17;1.80;;;;;;;;;;4961075;28;20043;-85
2022/07/26 11:28:57;;;;;;;2.05;1.85;;;;;;;;;;4945980;28;20039;-88
2022/07/26 11:31:35;;;;;;;2.38;1.63;;;;;;;;;;4945578;28;20030;-89
2022/07/26 11:34:02;;;;;;;7.20;1.90;;;;;;;;;;4948046;28;20023;-87
2022/07/26 11:36:39;;;;;;;2.33;1.90;;;;;;;;;;4950703;28;20039;-89
2022/07/26 11:39:08;;;;;;;3.00;1.88;;;;;;;;;;4945794;28;20043;-89
2022/07/26 11:41:34;;;;;;;5.05;1.63;;;;;;;;;;4944057;28;20035;-89
2022/07/26 11:44:13;;;;;;;4.85;1.30;;;;;;;;;;4947652;29;20047;-91
2022/07/26 11:46:45;;;;;;;4.22;1.90;;;;;;;;;;4957249;28;20043;-87
2022/07/26 11:49:12;;;;;;;4.85;3.63;;;;;;;;;;4943081;28;20095;-86
2022/07/26 11:51:38;;;;;;;2.45;1.50;;;;;;;;;;4961825;28;20039;-86
2022/07/26 11:54:03;;;;;;;3.65;1.75;;;;;;;;;;4949514;28;20776;-88
2022/07/26 11:56:32;;;;;;;2.40;1.50;;;;;;;;;;4950983;28;20035;-87
2022/07/26 11:58:58;;;;;;;4.45;2.10;;;;;;;;;;4956306;28;20050;-85
2022/07/26 12:01:25;;;;;;;5.13;1.80;;;;;;;;;;4949605;28;20027;-85
2022/07/26 12:03:52;;;;;;;3.65;1.98;;;;;;;;;;4944506;28;20046;-85
2022/07/26 12:06:20;;;;;;;3.35;1.50;;;;;;;;;;4941783;28;20123;-88
2022/07/26 12:08:55;;;;;;;5.70;1.95;;;;;;;;;;4948943;28;20043;-87
2022/07/26 12:11:23;;;;;;;5.80;1.60;;;;;;;;;;4943558;28;20043;-86
2022/07/26 12:14:00;;;;;;;6.05;1.60;;;;;;;;;;4962250;28;20518;-85
2022/07/26 12:16:38;;;;;;;1.70;1.45;;;;;;;;;;4957449;28;20037;-86
2022/07/26 12:19:05;;;;;;;2.75;1.73;;;;;;;;;;4963101;28;20031;-87
2022/07/26 12:21:55;;;;;;;3.53;1.50;;;;;;;;;;4944361;28;20134;-88
2022/07/26 12:25:01;;;;;;;3.15;1.80;;;;;;;;;;4960499;28;20051;-89
2022/07/26 12:27:31;;;;;;;1.83;1.60;;;;;;;;;;4950441;28;20043;-87
2022/07/26 12:29:59;;;;;;;4.30;1.60;;;;;;;;;;4948070;28;20081;-89
2022/07/26 12:32:34;;;;;;;4.90;1.90;;;;;;;;;;4951918;28;20051;-87
2022/07/26 12:35:05;;;;;;;2.75;2.05;;;;;;;;;;4948176;28;20049;-90
2022/07/26 12:37:33;;;;;;;3.92;1.40;;;;;;;;;;4968092;28;20039;-87
2022/07/26 12:39:59;;;;;;;3.38;1.60;;;;;;;;;;4951200;28;20042;-89
2022/07/26 12:42:30;;;;;;;1.50;1.40;;;;;;;;;;4950747;28;20142;-90
2022/07/26 12:44:56;;;;;;;4.07;1.70;;;;;;;;;;4962998;28;20050;-88
2022/07/26 12:47:25;;;;;;;9.00;1.90;;;;;;;;;;4953914;28;20058;-90
2022/07/26 12:49:51;;;;;;;2.78;1.70;;;;;;;;;;4954036;28;20043;-86
2022/07/26 12:52:18;;;;;;;4.30;1.92;;;;;;;;;;4950894;28;20034;-85
2022/07/26 12:54:45;;;;;;;3.78;2.17;;;;;;;;;;4949715;28;20031;-86
2022/07/26 12:57:11;;;;;;;4.30;1.67;;;;;;;;;;4946207;28;20426;-91
2022/07/26 12:59:36;;;;;;;5.05;1.92;;;;;;;;;;4948635;28;20454;-87
2022/07/26 13:02:03;;;;;;;4.93;1.70;;;;;;;;;;4948617;28;20498;-87
2022/07/26 13:04:29;;;;;;;2.13;1.50;;;;;;;;;;4966906;28;20035;-88
2022/07/26 13:06:54;;;;;;;2.80;1.40;;;;;;;;;;4951924;29;20034;-90
2022/07/26 13:09:20;;;;;;;2.92;1.45;;;;;;;;;;4950572;28;20043;-87
2022/07/26 13:11:45;;;;;;;3.03;1.35;;;;;;;;;;4944932;28;20043;-88
2022/07/26 13:14:11;;;;;;;3.88;2.05;;;;;;;;;;4952195;28;20040;-87
2022/07/26 13:16:36;;;;;;;3.60;1.52;;;;;;;;;;4950424;28;20043;-89
2022/07/26 13:19:01;;;;;;;1.15;1.05;;;;;;;;;;4948758;28;20027;-85
2022/07/26 13:21:28;;;;;;;2.65;1.27;;;;;;;;;;4949756;28;20035;-89
2022/07/26 13:23:54;;;;;;;1.38;1.10;;;;;;;;;;4952094;28;20039;-88
2022/07/26 13:26:19;;;;;;;1.67;1.33;;;;;;;;;;4949955;28;20048;-89
2022/07/26 13:28:44;;;;;;;2.88;1.40;;;;;;;;;;4952602;28;20582;-88
2022/07/26 13:31:11;;;;;;;2.30;1.30;;;;;;;;;;4949582;29;20873;-91
2022/07/26 13:33:38;;;;;;;1.77;1.20;;;;;;;;;;4950950;28;20063;-90
2022/07/26 13:36:03;;;;;;;3.72;1.50;;;;;;;;;;4949742;28;20040;-92
2022/07/26 13:38:32;;;;;;;3.35;1.60;;;;;;;;;;4953482;28;20106;-89
2022/07/26 13:41:01;;;;;;;2.22;1.65;;;;;;;;;;4971872;28;20038;-89
2022/07/26 13:43:27;;;;;;;4.30;1.63;;;;;;;;;;4974577;28;20039;-89
2022/07/26 13:45:52;;;;;;;2.65;1.67;;;;;;;;;;4966926;28;20090;-88
2022/07/26 13:48:17;;;;;;;2.78;1.83;;;;;;;;;;4972182;28;20040;-88
2022/07/26 13:50:43;;;;;;;2.30;1.83;;;;;;;;;;4983658;28;20264;-88
2022/07/26 13:53:08;;;;;;;3.10;1.80;;;;;;;;;;4969590;28;20114;-89
2022/07/26 13:55:34;;;;;;;2.30;1.80;;;;;;;;;;4958103;28;20101;-87
2022/07/26 13:57:59;;;;;;;3.03;1.98;;;;;;;;;;4959483;28;20023;-84
2022/07/26 14:00:26;;;;;;;2.50;1.90;;;;;;;;;;4966843;28;20054;-91
2022/07/26 14:02:52;;;;;;;3.30;1.90;;;;;;;;;;4952432;28;20074;-88
2022/07/26 14:05:17;;;;;;;2.38;1.77;;;;;;;;;;4952155;28;20074;-90
2022/07/26 14:07:43;;;;;;;1.77;1.40;;;;;;;;;;4953345;28;20043;-88
2022/07/26 14:10:08;;;;;;;2.33;1.40;;;;;;;;;;4952323;29;20030;-87
2022/07/26 14:12:34;;;;;;;3.78;1.65;;;;;;;;;;4949196;28;20035;-88
2022/07/26 14:14:59;;;;;;;3.47;1.50;;;;;;;;;;4944439;28;20404;-89
2022/07/26 14:17:24;;;;;;;2.72;1.73;;;;;;;;;;4965371;28;20040;-86
2022/07/26 14:19:50;;;;;;;3.35;2.20;;;;;;;;;;4950842;28;20031;-87
2022/07/26 14:22:15;;;;;;;2.75;1.90;;;;;;;;;;4950187;29;20043;-87
2022/07/26 14:24:41;;;;;;;1.92;1.77;;;;;;;;;;4951701;28;20039;-89
2022/07/26 14:27:06;;;;;;;2.58;1.83;;;;;;;;;;4952501;28;20034;-87
2022/07/26 14:29:32;;;;;;;4.28;1.70;;;;;;;;;;4938627;28;20043;-91
2022/07/26 14:31:58;;;;;;;4.05;1.75;;;;;;;;;;4952453;28;20042;-89
2022/07/26 14:34:23;;;;;;;2.83;1.90;;;;;;;;;;4947588;28;20043;-88
2022/07/26 14:36:48;;;;;;;1.65;1.55;;;;;;;;;;4947415;28;20022;-88
2022/07/26 14:39:14;;;;;;;1.95;1.70;;;;;;;;;;4950732;28;20039;-90
2022/07/26 14:41:39;;;;;;;2.50;1.80;;;;;;;;;;4945880;28;20122;-87
2022/07/26 14:44:05;;;;;;;1.70;1.60;;;;;;;;;;4946261;28;20122;-88
2022/07/26 14:46:30;;;;;;;2.72;1.70;;;;;;;;;;4948742;29;20035;-89